Time;durP1;ratioP1;P1;durP2;ratioP2;P2;SDS_P1;SDS_P2;PMS_P1;PMS_P2;Temp;Humidity;BMP_temperature;BMP_pressure;BME280_temperature;BME280_humidity;BME280_pressure;Samples;Min_cycle;Max_cycle;Signal;HPM_P1;HPM_P2
2023/08/10 00:01:11;;;;;;;0.00;0.00;;;;;;;;;;10423093;28;20580;-63
2023/08/10 00:06:12;;;;;;;0.10;0.10;;;;;;;;;;10421965;28;20033;-62
2023/08/10 00:11:12;;;;;;;0.03;0.03;;;;;;;;;;10421529;28;20447;-62
2023/08/10 00:16:12;;;;;;;0.10;0.10;;;;;;;;;;10426853;28;20025;-62
2023/08/10 00:21:13;;;;;;;0.10;0.10;;;;;;;;;;10424286;28;20027;-63
2023/08/10 00:26:13;;;;;;;0.10;0.10;;;;;;;;;;10417591;28;20026;-64
2023/08/10 00:31:13;;;;;;;0.10;0.10;;;;;;;;;;10430422;28;20515;-61
2023/08/10 00:36:13;;;;;;;0.10;0.10;;;;;;;;;;10416052;28;20037;-62
2023/08/10 00:41:13;;;;;;;0.00;0.00;;;;;;;;;;10416205;28;20396;-62
2023/08/10 00:46:14;;;;;;;0.10;0.10;;;;;;;;;;10415950;28;20020;-63
2023/08/10 00:51:14;;;;;;;0.10;0.10;;;;;;;;;;10426314;28;20108;-63
2023/08/10 00:56:15;;;;;;;0.00;0.00;;;;;;;;;;10433978;28;20263;-62
2023/08/10 01:01:16;;;;;;;0.10;0.10;;;;;;;;;;10422742;28;20757;-61
2023/08/10 01:06:40;;;;;;;0.10;0.10;;;;;;;;;;10425211;28;20033;-61
2023/08/10 01:11:40;;;;;;;;;;;;;;;;;;10432486;28;20024;-61
2023/08/10 01:16:41;;;;;;;0.10;0.10;;;;;;;;;;10438428;28;20253;-62
2023/08/10 01:21:50;;;;;;;0.10;0.10;;;;;;;;;;10439296;28;20048;-61
2023/08/10 01:26:53;;;;;;;0.10;0.10;;;;;;;;;;10442585;28;20013;-61
2023/08/10 01:31:53;;;;;;;0.00;0.00;;;;;;;;;;10432918;28;20459;-63
2023/08/10 01:36:54;;;;;;;0.00;0.00;;;;;;;;;;10411098;28;20017;-61
2023/08/10 01:41:54;;;;;;;0.10;0.10;;;;;;;;;;10438584;28;20013;-63
2023/08/10 01:46:56;;;;;;;0.00;0.00;;;;;;;;;;10431096;28;20708;-63
2023/08/10 01:51:57;;;;;;;0.10;0.10;;;;;;;;;;10429968;28;20016;-62
2023/08/10 01:56:58;;;;;;;0.10;0.10;;;;;;;;;;10436345;28;20031;-64
2023/08/10 02:01:58;;;;;;;0.10;0.10;;;;;;;;;;10437280;28;20096;-63
2023/08/10 02:06:58;;;;;;;0.10;0.10;;;;;;;;;;10411637;28;20506;-64
2023/08/10 02:11:59;;;;;;;0.10;0.10;;;;;;;;;;10436717;28;20037;-63
2023/08/10 02:16:59;;;;;;;0.10;0.10;;;;;;;;;;10428211;28;20079;-62
2023/08/10 02:21:59;;;;;;;0.00;0.00;;;;;;;;;;10425173;28;20017;-62
2023/08/10 02:26:59;;;;;;;0.10;0.10;;;;;;;;;;10422770;28;20479;-64
2023/08/10 02:32:00;;;;;;;0.10;0.10;;;;;;;;;;10430699;28;20017;-63
2023/08/10 02:37:00;;;;;;;0.00;0.00;;;;;;;;;;10431014;28;20353;-63
2023/08/10 02:42:02;;;;;;;0.10;0.10;;;;;;;;;;10420418;28;20021;-62
2023/08/10 02:47:02;;;;;;;0.10;0.10;;;;;;;;;;10413638;28;20029;-63
2023/08/10 02:52:02;;;;;;;0.10;0.10;;;;;;;;;;10410170;28;20022;-61
2023/08/10 02:57:03;;;;;;;0.10;0.10;;;;;;;;;;10427585;28;20041;-62
2023/08/10 03:02:03;;;;;;;0.05;0.05;;;;;;;;;;10410220;28;20075;-60
2023/08/10 03:07:03;;;;;;;0.00;0.00;;;;;;;;;;10419211;28;20044;-61
2023/08/10 03:12:04;;;;;;;0.00;0.00;;;;;;;;;;10416973;28;20017;-60
2023/08/10 03:17:04;;;;;;;0.10;0.10;;;;;;;;;;10413832;28;20021;-62
2023/08/10 03:22:04;;;;;;;0.10;0.10;;;;;;;;;;10427753;28;20021;-62
2023/08/10 03:27:04;;;;;;;0.10;0.10;;;;;;;;;;10424867;28;20036;-61
2023/08/10 03:32:05;;;;;;;0.10;0.10;;;;;;;;;;10409428;28;20162;-63
2023/08/10 03:37:05;;;;;;;0.05;0.05;;;;;;;;;;10416156;28;20388;-62
2023/08/10 03:42:05;;;;;;;0.10;0.10;;;;;;;;;;10420059;28;20051;-62
2023/08/10 03:47:05;;;;;;;0.00;0.00;;;;;;;;;;10418834;28;20021;-61
2023/08/10 03:52:06;;;;;;;0.10;0.10;;;;;;;;;;10411645;28;20029;-61
2023/08/10 03:57:06;;;;;;;0.00;0.00;;;;;;;;;;10423771;28;20034;-61
2023/08/10 04:02:06;;;;;;;0.10;0.10;;;;;;;;;;10398573;28;20044;-61
2023/08/10 04:07:07;;;;;;;0.10;0.10;;;;;;;;;;10434296;28;20380;-61
2023/08/10 04:12:07;;;;;;;0.10;0.10;;;;;;;;;;10429385;28;20075;-62
2023/08/10 04:17:08;;;;;;;0.10;0.10;;;;;;;;;;10414028;28;20086;-62
2023/08/10 04:22:08;;;;;;;0.10;0.10;;;;;;;;;;10434324;28;20049;-61
2023/08/10 04:27:08;;;;;;;0.10;0.10;;;;;;;;;;10426150;28;20025;-62
2023/08/10 04:32:08;;;;;;;0.10;0.10;;;;;;;;;;10414033;28;20021;-62
2023/08/10 04:37:08;;;;;;;0.10;0.10;;;;;;;;;;10419031;28;20026;-62
2023/08/10 04:42:08;;;;;;;0.10;0.10;;;;;;;;;;10409017;28;20108;-61
2023/08/10 04:47:09;;;;;;;0.10;0.10;;;;;;;;;;10446590;28;20052;-61
2023/08/10 04:52:09;;;;;;;0.10;0.10;;;;;;;;;;10422199;28;20018;-62
2023/08/10 04:57:09;;;;;;;0.10;0.10;;;;;;;;;;10429963;28;20025;-61
2023/08/10 05:02:10;;;;;;;0.10;0.10;;;;;;;;;;10432436;28;20079;-61
2023/08/10 05:07:10;;;;;;;0.10;0.10;;;;;;;;;;10430441;28;20106;-61
2023/08/10 05:12:10;;;;;;;0.10;0.10;;;;;;;;;;10421455;28;20041;-62
2023/08/10 05:17:10;;;;;;;0.00;0.00;;;;;;;;;;10433709;28;20058;-63
2023/08/10 05:22:10;;;;;;;0.10;0.10;;;;;;;;;;10433277;28;20101;-61
2023/08/10 05:27:11;;;;;;;0.00;0.00;;;;;;;;;;10430697;22;20041;-67
2023/08/10 05:32:11;;;;;;;0.10;0.10;;;;;;;;;;10415235;28;20522;-68
2023/08/10 05:37:11;;;;;;;0.00;0.00;;;;;;;;;;10414606;28;20021;-67
2023/08/10 05:42:12;;;;;;;0.10;0.10;;;;;;;;;;10415555;28;20043;-67
2023/08/10 05:47:12;;;;;;;0.10;0.10;;;;;;;;;;10414924;28;20024;-66
2023/08/10 05:52:12;;;;;;;0.00;0.00;;;;;;;;;;10430704;28;20024;-65
2023/08/10 05:57:12;;;;;;;0.10;0.10;;;;;;;;;;10455467;28;20021;-65
2023/08/10 06:02:12;;;;;;;0.00;0.00;;;;;;;;;;10455548;28;20021;-66
2023/08/10 06:07:13;;;;;;;0.00;0.00;;;;;;;;;;10455151;28;20032;-66
2023/08/10 06:12:13;;;;;;;0.10;0.10;;;;;;;;;;10455614;28;20483;-67
2023/08/10 06:17:13;;;;;;;0.00;0.00;;;;;;;;;;10454630;28;20490;-66
2023/08/10 06:22:14;;;;;;;0.00;0.00;;;;;;;;;;10455232;28;20039;-67
2023/08/10 06:27:14;;;;;;;0.00;0.00;;;;;;;;;;10454261;28;20541;-67
2023/08/10 06:32:14;;;;;;;0.10;0.10;;;;;;;;;;10454296;28;20118;-67
2023/08/10 06:37:16;;;;;;;0.10;0.10;;;;;;;;;;10454063;28;20086;-67
2023/08/10 06:42:17;;;;;;;0.10;0.10;;;;;;;;;;10454721;28;20025;-67
2023/08/10 06:47:17;;;;;;;0.10;0.10;;;;;;;;;;10454210;28;20031;-67
2023/08/10 06:52:18;;;;;;;0.10;0.10;;;;;;;;;;10453482;28;20025;-67
2023/08/10 06:57:19;;;;;;;0.00;0.00;;;;;;;;;;10453203;28;20395;-67
2023/08/10 07:02:19;;;;;;;0.10;0.10;;;;;;;;;;10453671;28;20017;-67
2023/08/10 07:07:19;;;;;;;0.10;0.10;;;;;;;;;;10452162;28;20476;-67
2023/08/10 07:12:20;;;;;;;0.10;0.10;;;;;;;;;;10452749;28;20491;-67
2023/08/10 07:17:20;;;;;;;0.10;0.10;;;;;;;;;;10452434;28;20456;-67
2023/08/10 07:22:20;;;;;;;0.10;0.10;;;;;;;;;;10452393;28;20067;-67
2023/08/10 07:27:20;;;;;;;0.10;0.10;;;;;;;;;;10452019;28;20082;-66
2023/08/10 07:32:21;;;;;;;0.03;0.03;;;;;;;;;;10452193;28;20016;-67
2023/08/10 07:37:21;;;;;;;0.00;0.00;;;;;;;;;;10451699;28;20100;-69
2023/08/10 07:42:22;;;;;;;0.05;0.05;;;;;;;;;;10452043;28;20025;-68
2023/08/10 07:47:22;;;;;;;;;;;;;;;;;;10451600;28;20096;-68
2023/08/10 07:52:22;;;;;;;0.10;0.10;;;;;;;;;;10451825;28;20356;-69
2023/08/10 07:57:22;;;;;;;0.07;0.07;;;;;;;;;;10451428;28;20025;-68
2023/08/10 08:02:23;;;;;;;0.10;0.10;;;;;;;;;;10451906;28;20013;-68
2023/08/10 08:07:25;;;;;;;0.10;0.10;;;;;;;;;;10451099;28;20760;-69
2023/08/10 08:12:26;;;;;;;0.10;0.10;;;;;;;;;;10451293;28;20013;-69
2023/08/10 08:17:26;;;;;;;;;;;;;;;;;;10456402;28;20235;-68
2023/08/10 08:22:26;;;;;;;0.00;0.00;;;;;;;;;;10460052;28;20119;-68
2023/08/10 08:27:26;;;;;;;0.00;0.00;;;;;;;;;;10458849;28;20119;-68
2023/08/10 08:32:26;;;;;;;0.10;0.10;;;;;;;;;;10425514;28;20503;-67
2023/08/10 08:37:27;;;;;;;0.10;0.10;;;;;;;;;;10417405;28;20029;-67
2023/08/10 08:42:27;;;;;;;0.00;0.00;;;;;;;;;;10417383;28;20048;-67
2023/08/10 08:47:27;;;;;;;0.00;0.00;;;;;;;;;;10416928;28;20104;-68
2023/08/10 08:52:28;;;;;;;0.00;0.00;;;;;;;;;;10417114;28;20354;-67
2023/08/10 08:57:28;;;;;;;0.10;0.10;;;;;;;;;;10416795;28;20025;-66
2023/08/10 09:02:29;;;;;;;0.10;0.10;;;;;;;;;;10416426;28;20392;-66
2023/08/10 09:07:30;;;;;;;0.00;0.00;;;;;;;;;;10416648;28;20028;-65
2023/08/10 09:12:34;;;;;;;0.10;0.10;;;;;;;;;;10416761;28;20026;-66
2023/08/10 09:17:36;;;;;;;0.00;0.00;;;;;;;;;;10398011;28;20027;-67
2023/08/10 09:22:37;;;;;;;0.10;0.10;;;;;;;;;;10415728;28;20111;-66
2023/08/10 09:27:37;;;;;;;0.00;0.00;;;;;;;;;;10415368;28;20026;-67
2023/08/10 09:32:38;;;;;;;0.10;0.10;;;;;;;;;;10415510;28;20403;-67
2023/08/10 09:37:38;;;;;;;0.00;0.00;;;;;;;;;;10415096;28;20017;-65
2023/08/10 09:42:39;;;;;;;0.00;0.00;;;;;;;;;;10415127;28;20036;-65
2023/08/10 09:47:41;;;;;;;0.10;0.10;;;;;;;;;;10414711;28;20041;-66
2023/08/10 09:52:41;;;;;;;0.00;0.00;;;;;;;;;;10414830;28;20056;-67
2023/08/10 09:57:44;;;;;;;0.00;0.00;;;;;;;;;;10414251;28;20080;-66
2023/08/10 10:02:45;;;;;;;0.00;0.00;;;;;;;;;;10414295;28;20045;-67
2023/08/10 10:07:46;;;;;;;0.03;0.03;;;;;;;;;;10413965;28;20049;-66
2023/08/10 10:12:48;;;;;;;0.10;0.10;;;;;;;;;;10414452;28;20032;-66
2023/08/10 10:17:52;;;;;;;0.00;0.00;;;;;;;;;;10413660;28;20468;-64
2023/08/10 10:22:52;;;;;;;0.10;0.10;;;;;;;;;;10414069;28;20037;-67
2023/08/10 10:27:52;;;;;;;0.00;0.00;;;;;;;;;;10413567;28;20070;-67
2023/08/10 10:32:53;;;;;;;0.03;0.03;;;;;;;;;;10413766;28;20159;-67
2023/08/10 10:37:54;;;;;;;0.00;0.00;;;;;;;;;;10412949;28;20021;-67
2023/08/10 10:43:01;;;;;;;0.00;0.00;;;;;;;;;;10412303;28;20029;-66
2023/08/10 10:48:01;;;;;;;0.10;0.10;;;;;;;;;;10412470;28;20029;-67
2023/08/10 10:53:13;;;;;;;0.10;0.10;;;;;;;;;;10413103;28;20031;-67
2023/08/10 10:58:14;;;;;;;0.00;0.00;;;;;;;;;;10412706;28;20033;-67
2023/08/10 11:03:21;;;;;;;0.00;0.00;;;;;;;;;;10488633;28;20386;-68
2023/08/10 11:08:21;;;;;;;0.00;0.00;;;;;;;;;;10488339;28;20025;-65
2023/08/10 11:13:24;;;;;;;0.00;0.00;;;;;;;;;;10487871;28;20532;-67
2023/08/10 11:18:24;;;;;;;;;;;;;;;;;;10487230;28;20087;-67
2023/08/10 11:23:25;;;;;;;0.00;0.00;;;;;;;;;;10483049;28;20439;-66
2023/08/10 11:34:25;;;;;;;0.00;0.00;;;;;;;;;;10307504;28;20511;-91
2023/08/10 11:39:33;;;;;;;0.00;0.00;;;;;;;;;;10267798;28;20034;-90
2023/08/10 11:44:57;;;;;;;0.00;0.00;;;;;;;;;;10297352;28;20045;-91
2023/08/10 11:50:33;;;;;;;0.00;0.00;;;;;;;;;;10322287;28;20602;-91
2023/08/10 11:55:41;;;;;;;0.00;0.00;;;;;;;;;;10321924;28;20033;-91
2023/08/10 12:00:49;;;;;;;0.00;0.00;;;;;;;;;;10407267;28;20072;-91
2023/08/10 12:06:06;;;;;;;0.00;0.00;;;;;;;;;;10407583;28;20018;-92
2023/08/10 12:11:21;;;;;;;0.00;0.00;;;;;;;;;;10400432;28;20028;-90
2023/08/10 12:16:49;;;;;;;0.00;0.00;;;;;;;;;;10379905;28;20473;-90
2023/08/10 12:21:51;;;;;;;0.00;0.00;;;;;;;;;;10378417;28;20044;-91
2023/08/10 12:26:55;;;;;;;0.00;0.00;;;;;;;;;;10376177;28;20111;-90
2023/08/10 12:31:57;;;;;;;;;;;;;;;;;;10379379;28;20048;-90
2023/08/10 12:36:59;;;;;;;0.00;0.00;;;;;;;;;;10380626;28;19996;-89
2023/08/10 12:42:02;;;;;;;0.00;0.00;;;;;;;;;;10380424;28;20026;-90
2023/08/10 12:47:05;;;;;;;0.00;0.00;;;;;;;;;;10380265;28;20029;-90
2023/08/10 12:52:10;;;;;;;0.10;0.10;;;;;;;;;;10377857;28;20029;-90
2023/08/10 12:57:11;;;;;;;0.10;0.10;;;;;;;;;;10380211;28;20037;-90
2023/08/10 13:02:31;;;;;;;0.00;0.00;;;;;;;;;;10377326;28;20026;-90
2023/08/10 13:07:35;;;;;;;0.00;0.00;;;;;;;;;;10377472;28;20030;-89
2023/08/10 13:12:41;;;;;;;0.00;0.00;;;;;;;;;;10393735;28;20550;-90
2023/08/10 13:17:41;;;;;;;0.00;0.00;;;;;;;;;;10378798;28;20026;-89
2023/08/10 13:22:44;;;;;;;0.00;0.00;;;;;;;;;;10375557;28;20113;-89
2023/08/10 13:27:44;;;;;;;;;;;;;;;;;;10392170;28;20071;-90
2023/08/10 13:32:46;;;;;;;0.00;0.00;;;;;;;;;;10385853;28;19923;-90
2023/08/10 13:37:57;;;;;;;0.00;0.00;;;;;;;;;;10376002;28;20610;-90
2023/08/10 13:42:58;;;;;;;0.00;0.00;;;;;;;;;;10375721;28;20038;-92
2023/08/10 13:48:06;;;;;;;0.00;0.00;;;;;;;;;;10376490;28;20541;-91
2023/08/10 13:59:04;;;;;;;0.00;0.00;;;;;;;;;;10376197;28;20033;-90
2023/08/10 14:04:06;;;;;;;0.00;0.00;;;;;;;;;;10375235;28;20022;-92
2023/08/10 14:09:10;;;;;;;0.00;0.00;;;;;;;;;;10376209;28;20269;-92
2023/08/10 14:14:12;;;;;;;0.00;0.00;;;;;;;;;;10374367;28;20568;-91
2023/08/10 14:19:32;;;;;;;0.00;0.00;;;;;;;;;;10375158;28;20405;-92
2023/08/10 14:24:38;;;;;;;0.00;0.00;;;;;;;;;;10378509;28;20105;-92
2023/08/10 14:29:38;;;;;;;0.00;0.00;;;;;;;;;;10376928;28;20038;-92
2023/08/10 14:34:39;;;;;;;0.00;0.00;;;;;;;;;;10373817;28;20502;-92
2023/08/10 14:39:39;;;;;;;0.00;0.00;;;;;;;;;;10377118;28;20029;-92
2023/08/10 14:44:39;;;;;;;0.10;0.10;;;;;;;;;;10375922;28;20022;-91
2023/08/10 14:49:40;;;;;;;0.00;0.00;;;;;;;;;;10375609;28;20352;-92
2023/08/10 14:54:41;;;;;;;0.00;0.00;;;;;;;;;;10387000;28;20557;-93
2023/08/10 14:59:42;;;;;;;0.00;0.00;;;;;;;;;;10390140;28;20116;-88
2023/08/10 15:04:42;;;;;;;0.00;0.00;;;;;;;;;;10372772;28;20042;-90
2023/08/10 15:09:42;;;;;;;0.00;0.00;;;;;;;;;;10375728;28;20045;-91
2023/08/10 15:14:42;;;;;;;0.00;0.00;;;;;;;;;;10371032;28;20374;-90
2023/08/10 15:19:43;;;;;;;0.00;0.00;;;;;;;;;;10387599;28;20040;-90
2023/08/10 15:24:43;;;;;;;0.00;0.00;;;;;;;;;;10372131;28;20041;-91
2023/08/10 15:29:43;;;;;;;0.00;0.00;;;;;;;;;;10394392;28;20030;-91
2023/08/10 15:34:43;;;;;;;0.00;0.00;;;;;;;;;;10396690;28;20026;-91
2023/08/10 15:39:43;;;;;;;0.00;0.00;;;;;;;;;;10396438;28;20425;-90
2023/08/10 15:44:44;;;;;;;0.00;0.00;;;;;;;;;;10383055;28;20018;-90
2023/08/10 15:49:44;;;;;;;0.00;0.00;;;;;;;;;;10382633;28;20026;-92
2023/08/10 15:54:44;;;;;;;0.10;0.10;;;;;;;;;;10398344;28;20120;-90
2023/08/10 15:59:44;;;;;;;0.00;0.00;;;;;;;;;;10390985;28;20029;-89
2023/08/10 16:04:44;;;;;;;0.00;0.00;;;;;;;;;;10382983;28;20026;-90
2023/08/10 16:09:45;;;;;;;0.00;0.00;;;;;;;;;;10381428;28;20052;-92
2023/08/10 16:14:45;;;;;;;0.00;0.00;;;;;;;;;;10379535;28;20029;-88
2023/08/10 16:19:45;;;;;;;0.00;0.00;;;;;;;;;;10378697;28;20048;-89
2023/08/10 16:24:45;;;;;;;0.00;0.00;;;;;;;;;;10377173;28;20017;-85
2023/08/10 16:29:48;;;;;;;0.00;0.00;;;;;;;;;;10378696;28;20030;-90
2023/08/10 16:34:49;;;;;;;0.00;0.00;;;;;;;;;;10378071;28;20076;-90
2023/08/10 16:39:49;;;;;;;0.10;0.10;;;;;;;;;;10378789;28;20121;-91
2023/08/10 16:44:49;;;;;;;0.00;0.00;;;;;;;;;;10379111;28;20010;-92
2023/08/10 16:49:49;;;;;;;0.00;0.00;;;;;;;;;;10377391;28;20434;-88
2023/08/10 16:54:50;;;;;;;0.00;0.00;;;;;;;;;;10376832;28;20026;-90
2023/08/10 16:59:50;;;;;;;0.00;0.00;;;;;;;;;;10401428;22;20038;-66
2023/08/10 17:04:50;;;;;;;0.00;0.00;;;;;;;;;;10389641;28;20468;-65
2023/08/10 17:09:55;;;;;;;0.00;0.00;;;;;;;;;;10424350;28;20049;-65
2023/08/10 17:14:55;;;;;;;0.10;0.10;;;;;;;;;;10409308;28;20037;-66
2023/08/10 17:19:55;;;;;;;0.00;0.00;;;;;;;;;;10424618;28;20107;-66
2023/08/10 17:24:56;;;;;;;0.00;0.00;;;;;;;;;;10410255;28;20053;-66
2023/08/10 17:29:56;;;;;;;0.00;0.00;;;;;;;;;;10410401;28;20075;-66
2023/08/10 17:34:57;;;;;;;0.10;0.10;;;;;;;;;;10368771;22;20043;-67
2023/08/10 17:39:57;;;;;;;0.00;0.00;;;;;;;;;;10315223;28;20026;-66
2023/08/10 17:44:58;;;;;;;0.10;0.10;;;;;;;;;;10310940;28;20027;-65
2023/08/10 17:49:58;;;;;;;0.10;0.10;;;;;;;;;;10294234;28;20061;-65
2023/08/10 17:54:58;;;;;;;0.00;0.00;;;;;;;;;;10299050;28;20029;-65
2023/08/10 18:00:06;;;;;;;0.00;0.00;;;;;;;;;;10310017;28;20027;-66
2023/08/10 18:05:06;;;;;;;0.00;0.00;;;;;;;;;;10302524;28;20026;-69
2023/08/10 18:10:06;;;;;;;0.10;0.10;;;;;;;;;;10303931;28;20022;-68
2023/08/10 18:15:07;;;;;;;0.00;0.00;;;;;;;;;;10306719;28;20749;-67
2023/08/10 18:20:07;;;;;;;0.10;0.10;;;;;;;;;;10295576;28;20023;-65
2023/08/10 18:25:08;;;;;;;0.00;0.00;;;;;;;;;;10293292;28;20126;-66
2023/08/10 18:30:08;;;;;;;0.10;0.10;;;;;;;;;;10295174;28;20105;-65
2023/08/10 18:35:08;;;;;;;0.00;0.00;;;;;;;;;;10301835;28;20027;-65
2023/08/10 18:40:09;;;;;;;0.10;0.10;;;;;;;;;;10285966;28;20019;-65
2023/08/10 18:45:09;;;;;;;0.10;0.10;;;;;;;;;;10285657;28;20565;-64
2023/08/10 18:50:10;;;;;;;0.10;0.10;;;;;;;;;;10284316;28;20482;-65
2023/08/10 18:55:11;;;;;;;0.00;0.00;;;;;;;;;;10301978;28;20019;-66
2023/08/10 19:00:12;;;;;;;0.00;0.00;;;;;;;;;;10287875;28;20052;-66
2023/08/10 19:05:12;;;;;;;0.10;0.10;;;;;;;;;;10313110;28;20461;-64
2023/08/10 19:10:12;;;;;;;0.10;0.10;;;;;;;;;;10294810;28;20030;-64
2023/08/10 19:15:13;;;;;;;0.00;0.00;;;;;;;;;;10294774;28;20166;-64
2023/08/10 19:20:13;;;;;;;0.10;0.10;;;;;;;;;;10292190;28;20019;-63
2023/08/10 19:25:13;;;;;;;0.10;0.10;;;;;;;;;;10295474;28;20019;-64
2023/08/10 19:30:13;;;;;;;0.10;0.10;;;;;;;;;;10300957;28;20023;-66
2023/08/10 19:35:14;;;;;;;0.10;0.10;;;;;;;;;;10302539;28;20034;-66
2023/08/10 19:40:14;;;;;;;0.10;0.10;;;;;;;;;;10314757;28;20019;-65
2023/08/10 19:45:14;;;;;;;0.10;0.10;;;;;;;;;;10289861;28;20014;-65
2023/08/10 19:50:14;;;;;;;0.10;0.10;;;;;;;;;;10290672;28;20021;-64
2023/08/10 19:55:15;;;;;;;0.10;0.10;;;;;;;;;;10298799;28;20038;-65
2023/08/10 20:00:15;;;;;;;0.10;0.10;;;;;;;;;;10297776;28;20405;-65
2023/08/10 20:05:16;;;;;;;0.10;0.10;;;;;;;;;;10302957;28;20037;-64
2023/08/10 20:10:16;;;;;;;0.10;0.10;;;;;;;;;;10305279;28;20102;-67
2023/08/10 20:15:17;;;;;;;0.10;0.10;;;;;;;;;;10299657;28;20109;-66
2023/08/10 20:20:18;;;;;;;0.10;0.10;;;;;;;;;;10303860;28;20026;-66
2023/08/10 20:25:18;;;;;;;0.10;0.10;;;;;;;;;;10307932;28;20052;-65
2023/08/10 20:30:19;;;;;;;0.00;0.00;;;;;;;;;;10296691;28;20050;-65
2023/08/10 20:35:19;;;;;;;0.10;0.10;;;;;;;;;;10296182;28;20031;-65
2023/08/10 20:40:19;;;;;;;0.10;0.10;;;;;;;;;;10290503;28;20019;-66
2023/08/10 20:45:19;;;;;;;0.10;0.10;;;;;;;;;;10291499;28;20011;-65
2023/08/10 20:50:19;;;;;;;0.08;0.08;;;;;;;;;;10298165;28;20021;-66
2023/08/10 20:55:20;;;;;;;0.10;0.10;;;;;;;;;;10305827;28;20486;-65
2023/08/10 21:00:23;;;;;;;0.10;0.10;;;;;;;;;;10292712;28;20110;-65
2023/08/10 21:05:23;;;;;;;0.10;0.10;;;;;;;;;;10296067;28;20027;-66
2023/08/10 21:10:24;;;;;;;0.10;0.10;;;;;;;;;;10308821;28;20023;-65
2023/08/10 21:15:24;;;;;;;0.10;0.10;;;;;;;;;;10313176;28;20474;-66
2023/08/10 21:20:24;;;;;;;0.10;0.10;;;;;;;;;;10305589;28;20457;-65
2023/08/10 21:25:24;;;;;;;0.00;0.00;;;;;;;;;;10313594;28;20018;-67
2023/08/10 21:30:25;;;;;;;0.00;0.00;;;;;;;;;;10297564;28;20434;-65
2023/08/10 21:35:25;;;;;;;0.10;0.10;;;;;;;;;;10299759;28;20153;-65
2023/08/10 21:40:27;;;;;;;0.10;0.10;;;;;;;;;;10297696;28;20126;-65
2023/08/10 21:45:27;;;;;;;0.10;0.10;;;;;;;;;;10305702;28;20021;-66
2023/08/10 21:50:28;;;;;;;0.00;0.00;;;;;;;;;;10306131;28;20014;-65
2023/08/10 21:55:28;;;;;;;0.10;0.10;;;;;;;;;;10299096;28;20026;-66
2023/08/10 22:00:28;;;;;;;0.10;0.10;;;;;;;;;;10292543;28;20023;-65
2023/08/10 22:05:28;;;;;;;0.17;0.17;;;;;;;;;;10303884;28;20417;-64
2023/08/10 22:10:29;;;;;;;0.10;0.10;;;;;;;;;;10295049;28;20022;-65
2023/08/10 22:15:29;;;;;;;0.10;0.10;;;;;;;;;;10289641;28;20022;-65
2023/08/10 22:20:29;;;;;;;0.10;0.10;;;;;;;;;;10302243;28;20026;-65
2023/08/10 22:25:31;;;;;;;0.10;0.10;;;;;;;;;;10293789;28;20014;-66
2023/08/10 22:30:32;;;;;;;0.10;0.10;;;;;;;;;;10286176;28;20022;-64
2023/08/10 22:35:32;;;;;;;0.10;0.10;;;;;;;;;;10286506;28;20026;-65
2023/08/10 22:40:32;;;;;;;0.10;0.10;;;;;;;;;;10285777;28;20027;-65
2023/08/10 22:45:32;;;;;;;0.10;0.10;;;;;;;;;;10286296;28;20098;-65
2023/08/10 22:50:33;;;;;;;0.10;0.10;;;;;;;;;;10293265;28;20027;-66
2023/08/10 22:55:34;;;;;;;0.10;0.10;;;;;;;;;;10311323;28;20034;-64
2023/08/10 23:00:35;;;;;;;0.10;0.10;;;;;;;;;;10288229;28;20023;-65
2023/08/10 23:05:35;;;;;;;0.10;0.10;;;;;;;;;;10293748;28;20027;-67
2023/08/10 23:10:35;;;;;;;0.10;0.10;;;;;;;;;;10285348;28;20508;-69
2023/08/10 23:15:36;;;;;;;0.00;0.00;;;;;;;;;;10299224;28;20507;-68
2023/08/10 23:20:39;;;;;;;0.10;0.10;;;;;;;;;;10302658;28;20507;-66
2023/08/10 23:25:40;;;;;;;0.08;0.08;;;;;;;;;;10301780;28;20281;-66
2023/08/10 23:30:40;;;;;;;0.10;0.10;;;;;;;;;;10285212;28;20465;-66
2023/08/10 23:35:40;;;;;;;0.10;0.10;;;;;;;;;;10317180;23;20141;-66
2023/08/10 23:40:40;;;;;;;0.10;0.10;;;;;;;;;;10310346;28;20084;-64
2023/08/10 23:45:40;;;;;;;0.10;0.10;;;;;;;;;;10309774;28;20053;-65
2023/08/10 23:50:40;;;;;;;0.10;0.10;;;;;;;;;;10309617;28;20037;-64
2023/08/10 23:55:41;;;;;;;0.10;0.10;;;;;;;;;;10308525;28;20084;-65
